createdAt,value
2018-10-17T00:00:13.596Z,67.32
2018-10-17T00:02:43.155Z,67.14
2018-10-17T00:05:12.505Z,66.35
2018-10-17T00:07:41.600Z,67.16
2018-10-17T00:10:11.338Z,67.46
2018-10-17T00:12:41.275Z,67.13
2018-10-17T00:15:10.626Z,66.97
2018-10-17T00:17:39.835Z,67.63
2018-10-17T00:20:09.969Z,67.58
2018-10-17T00:22:39.172Z,67.14
2018-10-17T00:25:08.618Z,67.58
2018-10-17T00:27:37.870Z,68.02
2018-10-17T00:30:10.467Z,67.52
2018-10-17T00:32:39.775Z,67.46
2018-10-17T00:35:09.893Z,68.74
2018-10-17T00:37:39.167Z,68.15
2018-10-17T00:40:08.430Z,68.07
2018-10-17T00:42:37.928Z,68.52
2018-10-17T00:45:07.722Z,68.83
2018-10-17T00:47:36.932Z,69.32
2018-10-17T00:50:06.177Z,69.46
2018-10-17T00:52:35.355Z,69.15
2018-10-17T00:55:04.702Z,69.23
2018-10-17T00:57:33.890Z,69.05
2018-10-17T01:00:03.261Z,69.27
2018-10-17T01:02:32.523Z,69.59
2018-10-17T01:05:02.163Z,69.41
2018-10-17T01:07:31.318Z,69.37
2018-10-17T01:10:00.512Z,69.20
2018-10-17T01:12:29.714Z,69.19
2018-10-17T01:14:58.883Z,68.93
2018-10-17T01:17:28.064Z,69.98
2018-10-17T01:19:57.301Z,69.47
2018-10-17T01:22:26.518Z,70.08
2018-10-17T01:24:55.698Z,70.12
2018-10-17T01:27:24.916Z,70.30
2018-10-17T01:29:54.104Z,69.51
2018-10-17T01:32:23.333Z,70.04
2018-10-17T01:34:52.606Z,69.53
2018-10-17T01:37:21.796Z,70.00
2018-10-17T01:39:50.963Z,70.56
2018-10-17T01:42:20.159Z,69.64
2018-10-17T01:44:49.373Z,69.95
2018-10-17T01:47:18.602Z,69.66
2018-10-17T01:49:47.786Z,70.11
2018-10-17T01:52:17.479Z,69.95
2018-10-17T01:54:46.689Z,70.25
2018-10-17T01:57:16.486Z,70.20
2018-10-17T01:59:45.695Z,69.89
2018-10-17T02:02:15.493Z,70.41
2018-10-17T02:04:44.764Z,70.68
2018-10-17T02:07:14.782Z,70.91
2018-10-17T02:09:43.888Z,71.30
2018-10-17T02:12:14.627Z,71.24
2018-10-17T02:14:43.785Z,70.24
2018-10-17T02:17:13.715Z,70.57
2018-10-17T02:19:42.957Z,70.44
2018-10-17T02:22:12.689Z,70.98
2018-10-17T02:24:41.856Z,70.61
2018-10-17T02:27:11.113Z,71.49
2018-10-17T02:29:40.308Z,71.63
2018-10-17T02:32:09.597Z,70.64
2018-10-17T02:34:43.992Z,71.00
2018-10-17T02:37:13.224Z,70.97
2018-10-17T02:39:42.427Z,71.63
2018-10-17T02:42:11.685Z,71.25
2018-10-17T02:44:40.901Z,70.95
2018-10-17T02:47:10.228Z,71.36
2018-10-17T02:49:39.425Z,71.95
2018-10-17T02:52:08.671Z,72.06
2018-10-17T02:54:37.900Z,71.87
2018-10-17T02:57:07.131Z,71.94
2018-10-17T02:59:36.329Z,71.73
2018-10-17T03:02:05.567Z,71.75
2018-10-17T03:04:34.740Z,71.82
2018-10-17T03:07:04.033Z,72.59
2018-10-17T03:09:33.255Z,72.77
2018-10-17T03:12:02.498Z,72.36
2018-10-17T03:14:31.694Z,73.02
2018-10-17T03:17:03.790Z,73.00
2018-10-17T03:19:32.920Z,72.81
2018-10-17T03:22:02.156Z,72.90
2018-10-17T03:24:31.341Z,72.67
2018-10-17T03:27:00.532Z,73.28
2018-10-17T03:29:29.735Z,72.31
2018-10-17T03:31:58.912Z,72.88
2018-10-17T03:34:28.068Z,72.83
2018-10-17T03:36:57.275Z,72.61
2018-10-17T03:39:26.441Z,72.51
2018-10-17T03:41:55.663Z,72.88
2018-10-17T03:44:24.895Z,73.08
2018-10-17T03:46:54.089Z,72.62
2018-10-17T03:49:24.068Z,73.00
2018-10-17T03:51:53.238Z,72.50
2018-10-17T03:54:22.463Z,73.02
2018-10-17T03:56:51.619Z,73.44
2018-10-17T03:59:21.361Z,72.77
2018-10-17T04:01:50.395Z,73.07
2018-10-17T04:04:19.607Z,73.07
2018-10-17T04:06:48.779Z,73.32
2018-10-17T04:09:18.063Z,72.75
2018-10-17T04:11:47.236Z,73.25
2018-10-17T04:14:16.631Z,72.98
2018-10-17T04:16:45.802Z,73.04
2018-10-17T04:19:15.080Z,73.11
2018-10-17T04:21:44.208Z,73.43
2018-10-17T04:24:13.925Z,73.58
2018-10-17T04:26:43.104Z,73.17
2018-10-17T04:29:12.393Z,73.67
2018-10-17T04:31:41.482Z,72.94
2018-10-17T04:34:10.699Z,73.40
2018-10-17T04:36:39.937Z,73.17
2018-10-17T04:39:10.368Z,73.54
2018-10-17T04:41:39.612Z,74.16
2018-10-17T04:44:09.845Z,73.63
2018-10-17T04:46:42.115Z,73.84
2018-10-17T04:49:11.645Z,74.57
2018-10-17T04:51:40.871Z,75.13
2018-10-17T04:54:10.066Z,74.84
2018-10-17T04:56:39.252Z,75.06
2018-10-17T04:59:08.498Z,74.73
2018-10-17T05:01:37.675Z,75.07
2018-10-17T05:04:06.962Z,74.69
2018-10-17T05:06:36.193Z,74.10
2018-10-17T05:09:08.767Z,74.69
2018-10-17T05:11:38.222Z,75.27
2018-10-17T05:14:07.659Z,74.54
2018-10-17T05:16:37.164Z,73.99
2018-10-17T05:19:06.435Z,73.79
2018-10-17T05:21:35.548Z,74.43
2018-10-17T05:24:04.806Z,73.78
2018-10-17T05:26:33.999Z,74.47
2018-10-17T05:29:03.311Z,74.01
2018-10-17T05:31:33.086Z,74.41
2018-10-17T05:34:02.430Z,73.95
2018-10-17T05:36:31.700Z,74.96
2018-10-17T05:39:00.927Z,74.08
2018-10-17T05:41:30.136Z,73.75
2018-10-17T05:43:59.385Z,74.61
2018-10-17T05:46:28.595Z,74.29
2018-10-17T05:48:57.874Z,73.76
2018-10-17T05:51:27.052Z,73.59
2018-10-17T05:53:56.211Z,74.33
2018-10-17T05:56:25.407Z,73.57
2018-10-17T05:58:54.639Z,73.87
2018-10-17T06:01:23.965Z,74.31
2018-10-17T06:03:53.106Z,73.85
2018-10-17T06:06:22.397Z,73.82
2018-10-17T06:08:51.558Z,73.86
2018-10-17T06:11:20.805Z,73.59
2018-10-17T06:13:50.041Z,72.25
2018-10-17T06:16:19.281Z,70.54
2018-10-17T06:18:48.460Z,68.97
2018-10-17T06:21:17.661Z,68.48
2018-10-17T06:23:46.818Z,66.86
2018-10-17T06:26:16.968Z,65.13
2018-10-17T06:28:46.215Z,65.38
2018-10-17T06:31:15.528Z,66.15
2018-10-17T06:33:44.665Z,64.42
2018-10-17T06:36:13.848Z,61.54
2018-10-17T06:38:43.036Z,61.12
2018-10-17T06:41:12.489Z,59.83
2018-10-17T06:43:41.574Z,58.60
2018-10-17T06:46:11.174Z,58.65
2018-10-17T06:48:40.371Z,57.32
2018-10-17T06:51:10.015Z,56.71
2018-10-17T06:53:39.179Z,58.58
2018-10-17T06:56:08.854Z,57.02
2018-10-17T06:58:38.063Z,56.82
2018-10-17T07:01:07.495Z,55.87
2018-10-17T07:03:36.678Z,56.12
2018-10-17T07:06:06.059Z,57.66
2018-10-17T07:08:35.272Z,55.80
2018-10-17T07:11:04.652Z,53.72
2018-10-17T07:13:33.832Z,53.03
2018-10-17T07:16:03.060Z,53.20
2018-10-17T07:18:32.266Z,51.17
2018-10-17T07:21:01.489Z,52.87
2018-10-17T07:23:30.689Z,55.17
2018-10-17T07:25:59.854Z,54.13
2018-10-17T07:28:29.091Z,51.02
2018-10-17T07:30:59.300Z,51.20
2018-10-17T07:33:28.447Z,49.02
2018-10-17T07:35:57.742Z,49.54
2018-10-17T07:38:26.843Z,52.68
2018-10-17T07:40:56.361Z,55.94
2018-10-17T07:43:25.519Z,52.37
2018-10-17T07:45:54.825Z,55.74
2018-10-17T07:48:24.017Z,56.35
2018-10-17T07:50:53.254Z,56.61
2018-10-17T07:53:22.497Z,57.75
2018-10-17T07:55:51.718Z,53.59
2018-10-17T07:58:20.890Z,51.68
2018-10-17T08:00:50.184Z,51.71
2018-10-17T08:03:19.391Z,54.44
2018-10-17T08:05:48.647Z,53.43
2018-10-17T08:08:17.828Z,52.52
2018-10-17T08:10:47.052Z,53.45
2018-10-17T08:13:16.214Z,52.27
2018-10-17T08:15:45.434Z,51.49
2018-10-17T08:18:14.835Z,52.04
2018-10-17T08:20:43.943Z,52.82
2018-10-17T08:23:13.385Z,53.21
2018-10-17T08:25:42.573Z,54.04
2018-10-17T08:28:12.045Z,52.83
2018-10-17T08:30:41.279Z,53.39
2018-10-17T08:33:11.001Z,53.55
2018-10-17T08:35:40.324Z,52.78
2018-10-17T08:38:10.100Z,53.57
2018-10-17T08:40:39.267Z,53.37
2018-10-17T08:43:08.927Z,53.71
2018-10-17T08:45:38.183Z,54.70
2018-10-17T08:48:07.644Z,54.72
2018-10-17T08:50:36.917Z,55.84
2018-10-17T08:53:06.118Z,55.99
2018-10-17T08:55:35.315Z,58.71
2018-10-17T08:58:04.636Z,59.48
2018-10-17T09:00:33.879Z,58.92
2018-10-17T09:03:03.115Z,58.32
2018-10-17T09:05:32.259Z,58.42
2018-10-17T09:08:01.569Z,58.53
2018-10-17T09:10:30.757Z,57.74
2018-10-17T09:12:59.983Z,58.84
2018-10-17T09:15:29.188Z,57.64
2018-10-17T09:17:58.438Z,56.40
2018-10-17T09:20:27.777Z,57.91
2018-10-17T09:22:56.851Z,55.76
2018-10-17T09:25:26.074Z,55.67
2018-10-17T09:27:55.212Z,55.48
2018-10-17T09:30:24.617Z,55.13
2018-10-17T09:32:53.648Z,54.61
2018-10-17T09:35:22.854Z,54.01
2018-10-17T09:37:52.046Z,55.49
2018-10-17T09:40:21.259Z,57.07
2018-10-17T09:42:50.454Z,57.67
2018-10-17T09:45:19.744Z,57.90
2018-10-17T09:47:49.087Z,55.52
2018-10-17T09:50:18.267Z,55.55
2018-10-17T09:52:47.535Z,54.75
2018-10-17T09:55:16.801Z,53.83
2018-10-17T09:57:46.049Z,53.71
2018-10-17T10:00:23.960Z,54.27
2018-10-17T10:02:54.582Z,54.74
2018-10-17T10:05:25.012Z,54.45
2018-10-17T10:07:55.024Z,53.76
2018-10-17T10:10:25.143Z,53.30
2018-10-17T10:12:54.334Z,56.13
2018-10-17T10:15:23.531Z,56.44
2018-10-17T10:17:52.727Z,55.46
2018-10-17T10:20:21.932Z,53.55
2018-10-17T10:22:51.162Z,53.30
2018-10-17T10:25:20.381Z,54.34
2018-10-17T10:27:49.573Z,54.39
2018-10-17T10:30:18.764Z,54.61
2018-10-17T10:32:47.916Z,54.99
2018-10-17T10:35:17.096Z,54.74
2018-10-17T10:37:46.323Z,52.25
2018-10-17T10:40:15.637Z,52.94
2018-10-17T10:42:44.738Z,52.75
2018-10-17T10:45:14.252Z,53.60
2018-10-17T10:47:43.473Z,52.83
2018-10-17T10:50:13.597Z,51.45
2018-10-17T10:52:42.821Z,51.48
2018-10-17T10:55:12.546Z,51.24
2018-10-17T10:57:41.767Z,52.25
2018-10-17T11:00:12.020Z,51.50
2018-10-17T11:02:41.209Z,50.94
2018-10-17T11:05:12.016Z,49.60
2018-10-17T11:07:41.177Z,50.76
2018-10-17T11:10:12.154Z,49.58
2018-10-17T11:12:41.382Z,50.57
2018-10-17T11:15:12.279Z,50.94
2018-10-17T11:17:41.533Z,51.17
2018-10-17T11:20:12.353Z,49.71
2018-10-17T11:22:41.566Z,49.83
2018-10-17T11:25:11.564Z,49.65
2018-10-17T11:27:40.778Z,49.03
2018-10-17T11:30:11.450Z,49.68
2018-10-17T11:32:40.952Z,50.80
2018-10-17T11:35:11.958Z,49.53
2018-10-17T11:37:41.177Z,49.12
2018-10-17T11:40:11.113Z,48.42
2018-10-17T11:42:40.310Z,47.93
2018-10-17T11:45:10.875Z,48.18
2018-10-17T11:47:40.082Z,47.69
2018-10-17T11:50:10.477Z,47.84
2018-10-17T11:52:40.124Z,46.90
2018-10-17T11:55:10.966Z,46.41
2018-10-17T11:57:40.197Z,45.58
2018-10-17T12:00:12.248Z,46.28
2018-10-17T12:02:41.508Z,46.65
2018-10-17T12:05:14.251Z,45.58
2018-10-17T12:07:43.555Z,44.06
2018-10-17T12:10:13.337Z,44.18
2018-10-17T12:12:42.550Z,43.97
2018-10-17T12:15:13.905Z,43.67
2018-10-17T12:17:43.288Z,42.88
2018-10-17T12:20:14.085Z,42.45
2018-10-17T12:22:44.290Z,42.95
2018-10-17T12:25:14.052Z,42.66
2018-10-17T12:27:43.360Z,42.08
2018-10-17T12:30:14.686Z,42.32
2018-10-17T12:32:43.871Z,41.75
2018-10-17T12:35:13.454Z,42.23
2018-10-17T12:37:42.646Z,43.24
2018-10-17T12:40:13.324Z,42.06
2018-10-17T12:42:42.465Z,42.13
2018-10-17T12:45:13.371Z,43.38
2018-10-17T12:47:42.583Z,43.13
2018-10-17T12:50:12.486Z,43.23
2018-10-17T12:52:41.833Z,42.16
2018-10-17T12:55:11.710Z,42.35
2018-10-17T12:57:40.872Z,41.96
2018-10-17T13:00:11.448Z,43.33
2018-10-17T13:02:40.931Z,43.36
2018-10-17T13:05:11.698Z,42.30
2018-10-17T13:07:40.801Z,41.28
2018-10-17T13:10:11.883Z,42.05
2018-10-17T13:12:41.311Z,41.45
2018-10-17T13:15:12.830Z,41.28
2018-10-17T13:17:42.967Z,41.76
2018-10-17T13:20:12.632Z,41.32
2018-10-17T13:22:41.841Z,42.65
2018-10-17T13:25:13.823Z,41.99
2018-10-17T13:27:43.014Z,42.23
2018-10-17T13:30:12.694Z,41.38
2018-10-17T13:32:41.891Z,41.62
2018-10-17T13:35:11.913Z,40.91
2018-10-17T13:37:41.091Z,41.20
2018-10-17T13:40:11.432Z,41.19
2018-10-17T13:42:40.657Z,40.74
2018-10-17T13:45:10.620Z,41.17
2018-10-17T13:47:39.798Z,42.34
2018-10-17T13:50:10.202Z,41.70
2018-10-17T13:52:39.450Z,42.54
2018-10-17T13:55:09.887Z,42.63
2018-10-17T13:57:39.232Z,41.97
2018-10-17T14:00:12.181Z,41.59
2018-10-17T14:02:43.330Z,42.18
2018-10-17T14:05:13.234Z,41.93
2018-10-17T14:07:42.470Z,41.42
2018-10-17T14:10:12.872Z,41.17
2018-10-17T14:12:42.131Z,40.60
2018-10-17T14:15:12.600Z,41.18
2018-10-17T14:17:41.756Z,41.00
2018-10-17T14:20:10.979Z,41.33
2018-10-17T14:22:40.218Z,42.36
2018-10-17T14:25:10.579Z,41.18
2018-10-17T14:27:39.775Z,41.45
2018-10-17T14:30:10.745Z,40.54
2018-10-17T14:35:10.886Z,41.35
2018-10-17T14:37:40.090Z,41.79
2018-10-17T14:40:09.795Z,40.06
2018-10-17T14:42:38.993Z,39.36
2018-10-17T14:45:10.201Z,39.57
2018-10-17T14:47:39.852Z,40.78
2018-10-17T14:50:09.639Z,40.50
2018-10-17T14:52:38.835Z,40.99
2018-10-17T14:55:09.059Z,41.51
2018-10-17T14:57:38.345Z,42.09
2018-10-17T15:00:11.839Z,40.99
2018-10-17T15:02:41.126Z,41.76
2018-10-17T15:05:11.860Z,41.87
2018-10-17T15:07:41.963Z,41.99
2018-10-17T15:10:12.257Z,42.24
2018-10-17T15:12:41.402Z,41.88
2018-10-17T15:15:12.947Z,42.13
2018-10-17T15:17:42.098Z,42.63
2018-10-17T15:20:11.912Z,42.36
2018-10-17T15:22:41.128Z,43.52
2018-10-17T15:25:10.666Z,43.95
2018-10-17T15:27:39.865Z,43.95
2018-10-17T15:30:09.603Z,43.33
2018-10-17T15:32:38.841Z,43.59
2018-10-17T15:35:09.647Z,43.30
2018-10-17T15:37:38.855Z,44.06
2018-10-17T15:40:08.369Z,44.32
2018-10-17T15:42:37.523Z,44.68
2018-10-17T15:45:06.843Z,43.93
2018-10-17T15:47:36.022Z,44.33
2018-10-17T15:50:05.420Z,45.78
2018-10-17T15:52:34.585Z,45.94
2018-10-17T15:55:04.413Z,45.57
2018-10-17T15:57:33.627Z,45.12
2018-10-17T16:00:02.920Z,45.62
2018-10-17T16:02:32.086Z,44.94
2018-10-17T16:05:01.403Z,45.17
2018-10-17T16:07:30.630Z,45.90
2018-10-17T16:09:59.803Z,45.42
2018-10-17T16:12:28.960Z,46.17
2018-10-17T16:14:58.222Z,46.15
2018-10-17T16:17:27.380Z,46.38
2018-10-17T16:19:56.689Z,46.64
2018-10-17T16:22:26.183Z,46.06
2018-10-17T16:24:55.378Z,46.84
2018-10-17T16:27:24.640Z,47.17
2018-10-17T16:29:54.102Z,47.15
2018-10-17T16:32:23.368Z,47.69
2018-10-17T16:34:52.654Z,48.14
2018-10-17T16:37:21.894Z,48.42
2018-10-17T16:39:51.140Z,48.35
2018-10-17T16:42:20.464Z,48.68
2018-10-17T16:44:49.677Z,49.08
2018-10-17T16:47:19.054Z,49.87
2018-10-17T16:49:48.377Z,49.20
2018-10-17T16:52:17.678Z,49.34
2018-10-17T16:54:47.025Z,49.76
2018-10-17T16:57:16.305Z,49.56
2018-10-17T16:59:47.229Z,50.21
2018-10-17T17:02:17.005Z,49.57
2018-10-17T17:04:46.190Z,50.32
2018-10-17T17:07:15.791Z,50.03
2018-10-17T17:09:45.946Z,49.71
2018-10-17T17:12:16.176Z,50.17
2018-10-17T17:14:45.728Z,50.09
2018-10-17T17:17:14.897Z,51.10
2018-10-17T17:19:44.080Z,51.09
2018-10-17T17:22:14.773Z,50.81
2018-10-17T17:24:43.959Z,50.76
2018-10-17T17:27:13.356Z,50.92
2018-10-17T17:29:42.484Z,51.32
2018-10-17T17:32:11.850Z,50.81
2018-10-17T17:34:41.062Z,50.63
2018-10-17T17:37:10.263Z,51.50
2018-10-17T17:39:39.543Z,50.99
2018-10-17T17:42:08.819Z,50.80
2018-10-17T17:45:03.379Z,51.73
2018-10-17T17:47:32.576Z,52.12
2018-10-17T17:50:02.300Z,51.69
2018-10-17T17:52:31.632Z,52.45
2018-10-17T17:55:01.464Z,53.05
2018-10-17T17:57:30.651Z,54.10
2018-10-17T17:59:59.869Z,53.72
2018-10-17T18:02:29.185Z,54.58
2018-10-17T18:04:58.394Z,53.99
2018-10-17T18:07:28.071Z,54.51
2018-10-17T18:09:57.284Z,53.98
2018-10-17T18:12:26.508Z,54.37
2018-10-17T18:14:55.719Z,54.02
2018-10-17T18:17:24.914Z,54.61
2018-10-17T18:19:54.142Z,54.24
2018-10-17T18:22:23.379Z,55.10
2018-10-17T18:24:52.646Z,55.06
2018-10-17T18:27:21.914Z,55.55
2018-10-17T18:29:51.125Z,55.49
2018-10-17T18:32:20.377Z,55.62
2018-10-17T18:34:49.604Z,54.88
2018-10-17T18:37:19.025Z,54.92
2018-10-17T18:39:48.467Z,55.40
2018-10-17T18:42:17.809Z,55.03
2018-10-17T18:44:47.213Z,54.98
2018-10-17T18:47:17.716Z,55.25
2018-10-17T18:49:47.622Z,55.92
2018-10-17T18:52:17.689Z,55.90
2018-10-17T18:54:48.243Z,57.22
2018-10-17T18:57:18.337Z,57.36
2018-10-17T18:59:47.742Z,57.32
2018-10-17T19:02:17.813Z,56.99
2018-10-17T19:04:47.226Z,57.26
2018-10-17T19:07:17.326Z,57.98
2018-10-17T19:09:46.758Z,58.09
2018-10-17T19:12:16.068Z,58.85
2018-10-17T19:14:45.456Z,58.84
2018-10-17T19:17:15.065Z,59.00
2018-10-17T19:19:44.324Z,59.10
2018-10-17T19:22:13.635Z,59.43
2018-10-17T19:24:43.009Z,58.48
2018-10-17T19:27:12.446Z,59.25
2018-10-17T19:29:41.775Z,59.21
2018-10-17T19:32:11.009Z,59.50
2018-10-17T19:34:40.336Z,59.53
2018-10-17T19:37:09.607Z,59.54
2018-10-17T19:39:39.038Z,59.56
2018-10-17T19:42:08.385Z,59.79
2018-10-17T19:44:37.619Z,59.66
2018-10-17T19:47:06.902Z,59.34
2018-10-17T19:49:36.170Z,60.25
2018-10-17T19:52:05.436Z,59.39
2018-10-17T19:54:34.657Z,59.52
2018-10-17T19:57:04.908Z,59.46
2018-10-17T19:59:34.103Z,59.13
2018-10-17T20:02:03.350Z,59.43
2018-10-17T20:04:32.524Z,60.44
2018-10-17T20:07:01.773Z,60.20
2018-10-17T20:09:30.935Z,59.41
2018-10-17T20:12:00.256Z,59.98
2018-10-17T20:14:29.469Z,59.79
2018-10-17T20:16:58.754Z,60.59
2018-10-17T20:19:28.024Z,59.57
2018-10-17T20:21:57.335Z,60.03
2018-10-17T20:24:26.658Z,60.10
2018-10-17T20:26:55.979Z,60.35
2018-10-17T20:29:25.161Z,61.12
2018-10-17T20:31:54.438Z,61.17
2018-10-17T20:34:23.637Z,61.12
2018-10-17T20:36:52.902Z,61.36
2018-10-17T20:39:22.151Z,61.47
2018-10-17T20:41:51.292Z,62.23
2018-10-17T20:44:20.472Z,61.67
2018-10-17T20:46:49.714Z,62.41
2018-10-17T20:49:19.009Z,62.83
2018-10-17T20:51:48.635Z,62.23
2018-10-17T20:54:17.811Z,62.45
2018-10-17T20:56:47.195Z,62.88
2018-10-17T20:59:16.433Z,62.61
2018-10-17T21:01:46.591Z,63.65
2018-10-17T21:04:16.304Z,63.73
2018-10-17T21:06:45.617Z,63.65
2018-10-17T21:09:15.735Z,63.99
2018-10-17T21:11:44.940Z,63.91
2018-10-17T21:14:14.684Z,63.59
2018-10-17T21:16:43.795Z,64.52
2018-10-17T21:19:13.014Z,63.79
2018-10-17T21:21:42.238Z,64.00
2018-10-17T21:24:11.459Z,64.82
2018-10-17T21:26:40.770Z,64.85
2018-10-17T21:29:09.954Z,64.44
2018-10-17T21:31:39.258Z,64.99
2018-10-17T21:34:08.448Z,64.95
2018-10-17T21:36:37.765Z,64.49
2018-10-17T21:39:10.813Z,64.98
2018-10-17T21:41:40.055Z,64.96
2018-10-17T21:44:10.259Z,64.86
2018-10-17T21:46:39.762Z,65.09
2018-10-17T21:49:09.716Z,65.83
2018-10-17T21:51:39.450Z,65.75
2018-10-17T21:54:08.687Z,65.85
2018-10-17T21:56:38.030Z,66.40
2018-10-17T21:59:07.590Z,66.49
2018-10-17T22:01:36.876Z,66.68
2018-10-17T22:04:06.117Z,66.76
2018-10-17T22:06:35.348Z,66.70
2018-10-17T22:09:06.642Z,67.19
2018-10-17T22:11:35.838Z,66.69
2018-10-17T22:14:05.338Z,66.31
2018-10-17T22:16:39.559Z,67.05
2018-10-17T22:19:08.896Z,66.40
2018-10-17T22:21:37.940Z,66.96
2018-10-17T22:39:14.552Z,67.34
2018-10-17T22:41:44.808Z,67.62
2018-10-17T22:44:14.437Z,67.20
2018-10-17T22:46:44.443Z,68.29
2018-10-17T22:49:13.848Z,67.67
2018-10-17T22:51:43.015Z,67.24
2018-10-17T22:54:12.439Z,66.83
2018-10-17T22:56:41.604Z,66.99
2018-10-17T22:59:10.807Z,67.39
2018-10-17T23:01:40.115Z,68.12
2018-10-17T23:04:09.599Z,68.47
2018-10-17T23:06:38.966Z,67.55
2018-10-17T23:09:10.104Z,67.87
2018-10-17T23:11:39.400Z,68.47
2018-10-17T23:14:09.051Z,68.42
2018-10-17T23:16:38.841Z,67.57
2018-10-17T23:19:08.563Z,67.79
2018-10-17T23:21:37.848Z,68.53
2018-10-17T23:24:07.090Z,68.59
2018-10-17T23:26:36.292Z,67.82
2018-10-17T23:29:05.491Z,68.94
2018-10-17T23:31:34.719Z,69.08
2018-10-17T23:34:03.931Z,69.14
2018-10-17T23:36:33.130Z,68.65
2018-10-17T23:39:02.327Z,69.36
2018-10-17T23:41:31.552Z,69.11
2018-10-17T23:44:00.774Z,69.63
2018-10-17T23:46:30.000Z,69.74
2018-10-17T23:48:59.231Z,69.88
2018-10-17T23:51:28.459Z,69.63
2018-10-17T23:53:57.678Z,70.12
2018-10-17T23:56:26.886Z,70.11
2018-10-17T23:58:56.060Z,70.43
